METAR Data

Data at: 1847 UTC 21 Nov 2018

METAR for:KGNR (Greenville Muni, ME, US)
Text:KGNR 211756Z AUTO VRB06KT M04/M09 A2963 RMK AO1 SLP055 T10391089 11039 21100 58028
Temperature: -3.9°C ( 25°F)
Dewpoint: -8.9°C ( 16°F) [RH = 68%]
Pressure (altimeter):29.63 inches Hg (1003.5 mb) [Sea level pressure: 1005.5 mb]
Winds:variable direction winds at 7 MPH (6 knots; 3.1 m/s)
QC Flag:automated observation with no human augmentation